Time;durP1;ratioP1;P1;durP2;ratioP2;P2;SDS_P1;SDS_P2;PMS_P1;PMS_P2;Temp;Humidity;BMP_temperature;BMP_pressure;BME280_temperature;BME280_humidity;BME280_pressure;Samples;Min_cycle;Max_cycle;Signal;HPM_P1;HPM_P2
2023/04/09 00:00:34;;;;;;;90.73;43.63;;;;;;;7.60;100.00;102852.81;5045659;28;20197;-66
2023/04/09 00:02:59;;;;;;;85.47;41.90;;;;;;;7.60;100.00;102857.94;5043409;28;20194;-66
2023/04/09 00:05:25;;;;;;;90.70;43.33;;;;;;;7.60;100.00;102848.59;5041949;28;20209;-66
2023/04/09 00:07:50;;;;;;;93.10;43.10;;;;;;;7.60;100.00;102853.69;5044925;28;20273;-68
2023/04/09 00:10:16;;;;;;;84.47;42.23;;;;;;;7.60;100.00;102851.13;5046788;28;20232;-66
2023/04/09 00:12:41;;;;;;;82.90;40.47;;;;;;;7.60;100.00;102855.38;5046505;28;20225;-67
2023/04/09 00:15:07;;;;;;;84.53;42.67;;;;;;;7.59;100.00;102849.38;5028984;28;20761;-66
2023/04/09 00:17:33;;;;;;;86.50;41.80;;;;;;;7.59;100.00;102851.03;5042436;28;20694;-66
2023/04/09 00:19:58;;;;;;;84.57;41.60;;;;;;;7.59;100.00;102851.94;5042066;28;20206;-66
2023/04/09 00:22:24;;;;;;;87.53;41.93;;;;;;;7.60;100.00;102843.50;5042604;28;20280;-68
2023/04/09 00:24:49;;;;;;;83.33;40.63;;;;;;;7.61;100.00;102847.78;5047859;28;20289;-68
2023/04/09 00:27:15;;;;;;;87.87;42.30;;;;;;;7.60;100.00;102847.72;5045305;28;20193;-67
2023/04/09 00:29:41;;;;;;;87.33;42.57;;;;;;;7.60;100.00;102850.28;5029906;28;20198;-68
2023/04/09 00:32:06;;;;;;;87.67;43.47;;;;;;;7.61;100.00;102847.78;5025175;28;20205;-67
2023/04/09 00:34:32;;;;;;;82.07;42.37;;;;;;;7.58;100.00;102850.19;5043848;28;20243;-67
2023/04/09 00:36:57;;;;;;;85.10;41.73;;;;;;;7.56;100.00;102848.31;5045198;28;20245;-67
2023/04/09 00:39:23;;;;;;;90.63;42.33;;;;;;;7.58;100.00;102844.19;5051065;28;20725;-67
2023/04/09 00:41:48;;;;;;;87.40;40.80;;;;;;;7.58;100.00;102844.19;5050735;28;20204;-67
2023/04/09 00:44:14;;;;;;;87.17;40.77;;;;;;;7.57;100.00;102845.88;5047584;28;20284;-67
2023/04/09 00:46:39;;;;;;;89.07;41.70;;;;;;;7.59;100.00;102845.94;5046693;28;20245;-67
2023/04/09 00:49:05;;;;;;;88.77;42.13;;;;;;;7.60;100.00;102847.72;5027458;28;20223;-67
2023/04/09 00:51:31;;;;;;;89.23;42.07;;;;;;;7.57;100.00;102845.88;5044430;28;20205;-67
2023/04/09 00:53:57;;;;;;;89.10;42.50;;;;;;;7.56;100.00;102844.06;5029955;28;20229;-67
2023/04/09 00:56:23;;;;;;;93.47;42.80;;;;;;;7.58;100.00;102847.63;5045212;28;20762;-67
2023/04/09 00:58:49;;;;;;;91.77;42.90;;;;;;;7.58;100.00;102834.88;5032311;28;20217;-67
2023/04/09 01:01:15;;;;;;;93.40;45.80;;;;;;;7.56;100.00;102841.53;5044507;28;20592;-67
2023/04/09 01:03:41;;;;;;;86.93;43.80;;;;;;;7.59;100.00;102835.75;5031595;28;20223;-67
2023/04/09 01:06:09;;;;;;;87.20;42.27;;;;;;;7.57;100.00;102835.66;5026648;28;20217;-67
2023/04/09 01:08:51;;;;;;;87.87;42.40;;;;;;;7.58;100.00;102837.44;5031348;28;20221;-67
2023/04/09 01:11:41;;;;;;;86.10;43.37;;;;;;;7.58;100.00;102845.06;5030672;28;20284;-67
2023/04/09 01:14:26;;;;;;;85.50;41.07;;;;;;;7.58;100.00;102857.81;5025649;28;20243;-67
2023/04/09 01:16:59;;;;;;;89.60;41.60;;;;;;;7.58;100.00;102850.19;5032524;28;20217;-67
2023/04/09 01:19:47;;;;;;;89.73;42.80;;;;;;;7.59;100.00;102851.03;5026020;28;20291;-67
2023/04/09 01:22:30;;;;;;;92.97;44.87;;;;;;;7.58;100.00;102846.72;5040841;28;20205;-66
2023/04/09 01:25:17;;;;;;;107.57;47.60;;;;;;;7.54;100.00;102840.56;5030520;28;20850;-67
2023/04/09 01:27:57;;;;;;;103.63;45.80;;;;;;;7.56;100.00;102844.06;5031680;28;20244;-67
2023/04/09 01:30:25;;;;;;;105.33;46.73;;;;;;;7.54;100.00;102849.88;5027969;28;20194;-66
2023/04/09 01:32:52;;;;;;;107.13;46.50;;;;;;;7.53;100.00;102846.44;5046828;28;20190;-66
2023/04/09 01:35:19;;;;;;;113.97;48.37;;;;;;;7.49;100.00;102847.03;5041683;28;20222;-66
2023/04/09 01:37:45;;;;;;;106.87;47.77;;;;;;;7.52;100.00;102838.69;5030078;28;20221;-67
2023/04/09 01:40:11;;;;;;;107.60;47.40;;;;;;;7.50;100.00;102838.59;5050121;28;20201;-66
2023/04/09 01:42:37;;;;;;;105.53;48.33;;;;;;;7.50;100.00;102840.25;5048495;28;20733;-66
2023/04/09 01:45:05;;;;;;;113.87;49.13;;;;;;;7.49;100.00;102839.41;5048543;28;20221;-66
2023/04/09 01:47:31;;;;;;;111.23;47.23;;;;;;;7.49;100.00;102838.50;5044274;28;20198;-66
2023/04/09 01:49:57;;;;;;;106.67;46.53;;;;;;;7.46;100.00;102839.19;5026260;28;20694;-66
2023/04/09 01:52:23;;;;;;;106.63;46.37;;;;;;;7.40;100.00;102836.25;5025260;28;20186;-66
2023/04/09 01:54:48;;;;;;;105.50;46.73;;;;;;;7.44;100.00;102833.13;5032279;28;20221;-66
2023/04/09 01:57:14;;;;;;;104.93;47.37;;;;;;;7.42;100.00;102827.03;5042912;28;20267;-68
2023/04/09 01:59:39;;;;;;;96.00;45.73;;;;;;;7.43;100.00;102827.94;5031584;28;20193;-66
2023/04/09 02:02:10;;;;;;;104.23;45.50;;;;;;;7.46;100.00;102823.03;5028399;28;20190;-66
2023/04/09 02:04:41;;;;;;;93.23;43.33;;;;;;;7.44;100.00;102827.13;5043987;28;20637;-68
2023/04/09 02:07:13;;;;;;;101.67;44.07;;;;;;;7.45;100.00;102826.34;5043191;28;20241;-67
2023/04/09 02:09:40;;;;;;;94.60;43.40;;;;;;;7.42;100.00;102823.63;5031206;28;20663;-67
2023/04/09 02:12:11;;;;;;;91.13;43.30;;;;;;;7.43;100.00;102826.28;5028053;28;20278;-67
2023/04/09 02:14:37;;;;;;;88.93;43.20;;;;;;;7.45;100.00;102827.22;5043156;28;20614;-67
2023/04/09 02:17:03;;;;;;;91.57;44.17;;;;;;;7.43;100.00;102820.28;5027364;28;20581;-67
2023/04/09 02:19:43;;;;;;;90.10;42.93;;;;;;;7.41;100.00;102819.31;5043440;28;20186;-67
2023/04/09 02:22:10;;;;;;;86.07;41.90;;;;;;;7.40;100.00;102820.97;5009815;28;20551;-67
2023/04/09 02:24:35;;;;;;;91.10;45.30;;;;;;;7.43;100.00;102823.72;5048973;28;20288;-67
2023/04/09 02:27:02;;;;;;;84.23;41.63;;;;;;;7.42;100.00;102813.44;5048712;28;20288;-67
2023/04/09 02:29:27;;;;;;;82.00;41.03;;;;;;;7.44;100.00;102816.94;5046371;28;20648;-67
2023/04/09 02:31:54;;;;;;;87.20;41.87;;;;;;;7.46;100.00;102817.94;5030895;28;20225;-66
2023/04/09 02:34:20;;;;;;;84.07;40.97;;;;;;;7.42;100.00;102814.28;5026821;28;20651;-66
2023/04/09 02:36:47;;;;;;;81.07;40.37;;;;;;;7.41;100.00;102807.44;5031157;28;20210;-66
2023/04/09 02:39:13;;;;;;;94.77;43.97;;;;;;;7.42;100.00;102814.28;5038386;28;20191;-66
2023/04/09 02:41:38;;;;;;;80.67;41.23;;;;;;;7.43;100.00;102815.19;5031086;28;20197;-66
2023/04/09 02:44:04;;;;;;;76.03;40.20;;;;;;;7.42;100.00;102814.28;5031686;28;20232;-66
2023/04/09 02:46:29;;;;;;;79.80;40.30;;;;;;;7.41;100.00;102812.53;5025716;28;20596;-66
2023/04/09 02:48:55;;;;;;;76.00;40.40;;;;;;;7.41;100.00;102811.66;5008518;28;20218;-66
2023/04/09 02:51:21;;;;;;;76.73;40.10;;;;;;;7.40;100.00;102809.88;5026417;28;20233;-66
2023/04/09 02:53:47;;;;;;;81.90;41.33;;;;;;;7.40;100.00;102804.78;5027544;28;20194;-66
2023/04/09 02:56:13;;;;;;;75.10;39.60;;;;;;;7.41;100.00;102806.56;5030118;28;20221;-66
2023/04/09 02:58:38;;;;;;;74.23;40.70;;;;;;;7.42;100.00;102800.69;5045087;28;20213;-66
2023/04/09 03:01:04;;;;;;;79.20;40.40;;;;;;;7.41;100.00;102802.34;5028294;28;20193;-66
2023/04/09 03:03:30;;;;;;;74.77;39.67;;;;;;;7.42;100.00;102793.03;5025137;28;20624;-66
2023/04/09 03:05:55;;;;;;;74.87;39.27;;;;;;;7.35;100.00;102795.97;5044297;28;20297;-66
2023/04/09 03:08:21;;;;;;;65.87;36.87;;;;;;;7.36;100.00;102784.97;5013500;28;20198;-66
2023/04/09 03:10:47;;;;;;;75.03;39.30;;;;;;;7.38;100.00;102789.38;5048700;28;20715;-66
2023/04/09 03:13:12;;;;;;;69.43;37.27;;;;;;;7.36;100.00;102785.88;5046862;28;20189;-66
2023/04/09 03:15:38;;;;;;;72.33;38.20;;;;;;;7.36;100.00;102790.09;5043921;28;20292;-66
2023/04/09 03:18:03;;;;;;;78.93;38.37;;;;;;;7.36;100.00;102784.97;5044103;28;20850;-66
2023/04/09 03:20:30;;;;;;;68.73;37.97;;;;;;;7.36;100.00;102782.44;5023233;28;20237;-68
2023/04/09 03:22:55;;;;;;;66.40;37.40;;;;;;;7.34;100.00;102784.91;5026680;28;20225;-68
2023/04/09 03:25:30;;;;;;;71.43;38.07;;;;;;;7.35;100.00;102775.59;5029502;28;20274;-67
2023/04/09 03:27:56;;;;;;;73.10;38.40;;;;;;;7.36;100.00;102782.44;5029884;28;20200;-67
2023/04/09 03:30:37;;;;;;;69.40;37.17;;;;;;;7.36;100.00;102783.34;5027419;28;20335;-67
2023/04/09 03:33:04;;;;;;;70.13;37.70;;;;;;;7.36;100.00;102790.09;5024934;28;20193;-67
2023/04/09 03:35:34;;;;;;;64.83;36.50;;;;;;;7.36;100.00;102784.97;5023496;28;20221;-67
2023/04/09 03:38:00;;;;;;;73.03;39.07;;;;;;;7.34;100.00;102792.56;5043214;28;20205;-67
2023/04/09 03:40:25;;;;;;;68.20;37.23;;;;;;;7.36;100.00;102793.53;5029122;28;20193;-66
2023/04/09 03:42:50;;;;;;;74.43;39.70;;;;;;;7.37;100.00;102790.19;5031245;28;20675;-66
2023/04/09 03:45:17;;;;;;;75.57;40.57;;;;;;;7.38;100.00;102788.53;5026542;28;20627;-66
2023/04/09 03:47:44;;;;;;;69.60;37.93;;;;;;;7.39;100.00;102791.19;5030688;28;20192;-68
2023/04/09 03:50:11;;;;;;;71.13;39.43;;;;;;;7.41;100.00;102792.16;5026198;28;20193;-67
2023/04/09 03:52:45;;;;;;;74.57;38.87;;;;;;;7.40;100.00;102786.94;5026991;28;20717;-67
2023/04/09 03:55:10;;;;;;;70.20;38.47;;;;;;;7.41;100.00;102779.41;5026546;28;20248;-67
2023/04/09 03:57:36;;;;;;;68.60;38.13;;;;;;;7.42;100.00;102786.25;5027822;28;20631;-67
2023/04/09 04:00:05;;;;;;;64.10;36.97;;;;;;;7.39;100.00;102783.53;5026899;28;20193;-68
2023/04/09 04:02:49;;;;;;;66.83;37.70;;;;;;;7.40;100.00;102777.66;5041364;28;20251;-67
2023/04/09 04:05:16;;;;;;;67.10;37.27;;;;;;;7.37;100.00;102781.69;5024079;28;20217;-67
2023/04/09 04:07:46;;;;;;;65.57;38.23;;;;;;;7.39;100.00;102786.09;5014468;28;20191;-67
2023/04/09 04:10:16;;;;;;;70.90;37.20;;;;;;;7.40;100.00;102787.84;5028756;28;20695;-67
2023/04/09 04:12:44;;;;;;;68.67;37.70;;;;;;;7.43;100.00;102795.69;5027488;28;20281;-67
2023/04/09 04:15:15;;;;;;;64.80;36.63;;;;;;;7.45;100.00;102796.66;5029099;28;20209;-66
2023/04/09 04:17:45;;;;;;;65.83;35.33;;;;;;;7.45;100.00;102796.66;5029092;28;20753;-67
2023/04/09 04:20:25;;;;;;;61.47;37.43;;;;;;;7.43;100.00;102789.69;5026481;28;20226;-67
2023/04/09 04:23:02;;;;;;;63.93;35.93;;;;;;;7.44;100.00;102794.00;5023471;28;20623;-67
2023/04/09 04:25:29;;;;;;;69.30;36.87;;;;;;;7.44;100.00;102788.91;5031379;28;20260;-67
2023/04/09 04:27:55;;;;;;;62.33;36.33;;;;;;;7.44;100.00;102794.00;5033811;28;20682;-67
2023/04/09 04:30:25;;;;;;;59.80;33.83;;;;;;;7.44;100.00;102792.34;5033131;28;20285;-67
2023/04/09 04:32:57;;;;;;;64.03;36.40;;;;;;;7.41;100.00;102787.06;5028518;28;20190;-68
2023/04/09 04:35:24;;;;;;;62.40;36.47;;;;;;;7.40;100.00;102790.38;5025656;28;20210;-67
2023/04/09 04:37:53;;;;;;;64.70;35.60;;;;;;;7.43;100.00;102794.78;5027358;28;20221;-67
2023/04/09 04:40:19;;;;;;;58.90;33.53;;;;;;;7.44;100.00;102794.00;5028574;28;20204;-67
2023/04/09 04:42:48;;;;;;;61.23;33.93;;;;;;;7.41;100.00;102796.38;5033855;28;20197;-67
2023/04/09 04:45:14;;;;;;;58.40;33.40;;;;;;;7.42;100.00;102795.59;5029871;28;20213;-67
2023/04/09 04:47:44;;;;;;;60.67;34.47;;;;;;;7.41;100.00;102791.28;5031545;28;20213;-67
2023/04/09 04:50:10;;;;;;;62.23;36.43;;;;;;;7.41;100.00;102798.94;5048601;28;20224;-67
2023/04/09 04:52:49;;;;;;;64.03;35.17;;;;;;;7.42;100.00;102796.44;5026691;28;20194;-66
2023/04/09 04:55:15;;;;;;;64.80;36.60;;;;;;;7.42;100.00;102785.41;5027877;28;20212;-66
2023/04/09 04:57:41;;;;;;;66.43;36.83;;;;;;;7.43;100.00;102799.91;5033288;28;20221;-67
2023/04/09 05:00:08;;;;;;;66.70;37.30;;;;;;;7.40;100.00;102789.50;5031302;28;20285;-66
2023/04/09 05:02:34;;;;;;;73.17;38.53;;;;;;;7.40;100.00;102794.59;5028192;28;20201;-66
2023/04/09 05:05:15;;;;;;;72.27;37.37;;;;;;;7.40;100.00;102792.03;5024848;28;20217;-66
2023/04/09 05:07:49;;;;;;;77.27;38.93;;;;;;;7.41;100.00;102796.38;5029550;28;20241;-66
2023/04/09 05:10:15;;;;;;;71.13;38.07;;;;;;;7.42;100.00;102796.44;5033191;28;20614;-66
2023/04/09 05:12:41;;;;;;;73.40;38.63;;;;;;;7.42;100.00;102798.13;5028937;28;20667;-66
2023/04/09 05:15:08;;;;;;;73.70;39.57;;;;;;;7.42;100.00;102795.59;5030682;28;20244;-66
2023/04/09 05:17:36;;;;;;;73.33;38.00;;;;;;;7.46;100.00;102798.41;5028390;28;20213;-66
2023/04/09 05:20:01;;;;;;;68.20;37.03;;;;;;;7.49;100.00;102813.00;5027895;28;20247;-66
2023/04/09 05:22:38;;;;;;;72.73;38.03;;;;;;;7.49;100.00;102800.28;5022356;28;20556;-68
2023/04/09 05:25:04;;;;;;;71.57;37.63;;;;;;;7.48;100.00;102804.50;5019874;28;20201;-66
2023/04/09 05:27:34;;;;;;;75.27;38.33;;;;;;;7.49;100.00;102811.34;5031218;28;20186;-68
2023/04/09 05:30:01;;;;;;;68.90;37.00;;;;;;;7.51;100.00;102814.00;5028271;28;20197;-68
2023/04/09 05:32:26;;;;;;;72.77;37.53;;;;;;;7.53;100.00;102814.97;5030387;28;20287;-67
2023/04/09 05:34:52;;;;;;;73.40;37.57;;;;;;;7.54;100.00;102811.63;5043810;28;20193;-67
2023/04/09 05:37:17;;;;;;;75.93;37.57;;;;;;;7.54;100.00;102811.63;5021116;28;20210;-67
2023/04/09 05:39:48;;;;;;;74.13;38.30;;;;;;;7.57;100.00;102807.63;5028748;28;20208;-67
2023/04/09 05:42:13;;;;;;;72.87;38.73;;;;;;;7.59;100.00;102808.59;5029827;28;20190;-67
2023/04/09 05:44:58;;;;;;;81.70;39.47;;;;;;;7.60;100.00;102810.34;5030192;28;20585;-67
2023/04/09 05:47:23;;;;;;;75.47;38.97;;;;;;;7.61;100.00;102809.56;5026778;28;20289;-68
2023/04/09 05:50:15;;;;;;;76.40;37.73;;;;;;;7.64;100.00;102819.97;5039812;28;20201;-67
2023/04/09 05:52:41;;;;;;;70.77;38.10;;;;;;;7.66;100.00;102817.50;5031604;28;20194;-67
2023/04/09 05:55:08;;;;;;;73.27;38.37;;;;;;;7.67;100.00;102817.63;5028075;28;20218;-67
2023/04/09 05:57:51;;;;;;;69.77;37.77;;;;;;;7.71;100.00;102821.22;5028821;28;20217;-68
2023/04/09 06:00:17;;;;;;;73.83;38.23;;;;;;;7.73;100.00;102823.09;5028481;28;20251;-67
2023/04/09 06:02:43;;;;;;;76.23;39.30;;;;;;;7.74;100.00;102827.38;5043713;28;20201;-67
2023/04/09 06:05:09;;;;;;;72.07;38.40;;;;;;;7.77;100.00;102832.69;5025672;28;20206;-67
2023/04/09 06:07:35;;;;;;;70.07;37.83;;;;;;;7.79;100.00;102823.47;5042754;28;20205;-67
2023/04/09 06:10:01;;;;;;;65.80;36.73;;;;;;;7.82;100.00;102822.75;5023496;28;20655;-67
2023/04/09 06:12:27;;;;;;;69.37;38.20;;;;;;;7.85;100.00;102823.84;5028762;28;20231;-67
2023/04/09 06:14:52;;;;;;;75.03;38.60;;;;;;;7.81;100.00;102823.56;5046593;28;20198;-67
2023/04/09 06:17:18;;;;;;;61.07;35.10;;;;;;;7.84;100.00;102819.53;5025872;28;20209;-67
2023/04/09 06:19:43;;;;;;;64.03;36.03;;;;;;;7.90;100.00;102824.13;5044761;28;20221;-67
2023/04/09 06:22:09;;;;;;;62.87;36.83;;;;;;;7.89;100.00;102825.81;5041705;28;20225;-67
2023/04/09 06:24:35;;;;;;;65.47;36.10;;;;;;;7.94;100.00;102832.09;5040978;28;20281;-67
2023/04/09 06:27:01;;;;;;;64.67;36.03;;;;;;;8.00;100.00;102832.44;5046994;28;20305;-67
2023/04/09 06:29:26;;;;;;;67.93;37.40;;;;;;;8.07;100.00;102828.59;5044133;28;20251;-67
2023/04/09 06:31:52;;;;;;;59.67;34.00;;;;;;;8.13;100.00;102827.31;5046677;28;20205;-68
2023/04/09 06:34:18;;;;;;;58.87;33.67;;;;;;;8.17;100.00;102826.72;5024516;28;20193;-67
2023/04/09 06:36:44;;;;;;;56.20;33.57;;;;;;;8.25;100.00;102834.88;5043341;28;20232;-68
2023/04/09 06:39:09;;;;;;;54.23;31.47;;;;;;;8.27;100.00;102831.63;5038960;28;20221;-67
2023/04/09 06:41:35;;;;;;;59.87;34.30;;;;;;;8.28;100.00;102833.38;5043076;28;20205;-67
2023/04/09 06:44:08;;;;;;;55.27;31.73;;;;;;;8.37;100.00;102833.03;5027150;28;20193;-68
2023/04/09 06:46:34;;;;;;;54.70;33.50;;;;;;;8.49;100.00;102833.78;5025525;28;20862;-67
2023/04/09 06:48:59;;;;;;;52.97;31.13;;;;;;;8.57;100.00;102832.56;5044325;28;20825;-68
2023/04/09 06:51:25;;;;;;;52.43;30.83;;;;;;;8.68;100.00;102834.06;5039931;28;20195;-68
2023/04/09 06:53:51;;;;;;;51.63;31.13;;;;;;;8.77;100.00;102826.94;5022860;28;20208;-68
2023/04/09 06:56:16;;;;;;;48.43;30.73;;;;;;;8.88;100.00;102831.88;5042926;28;20217;-68
2023/04/09 06:58:42;;;;;;;50.07;30.33;;;;;;;8.76;100.00;102831.16;5028808;28;20212;-68
2023/04/09 07:01:08;;;;;;;53.50;32.00;;;;;;;8.65;100.00;102831.31;5044787;28;20193;-69
2023/04/09 07:03:33;;;;;;;47.87;29.60;;;;;;;8.70;100.00;102835.06;5041837;28;20221;-68
2023/04/09 07:05:59;;;;;;;51.17;30.87;;;;;;;8.56;100.00;102835.88;5041491;28;20582;-68
2023/04/09 07:08:24;;;;;;;52.73;31.77;;;;;;;8.66;100.00;102835.66;5037418;28;20232;-68
2023/04/09 07:10:50;;;;;;;50.20;29.77;;;;;;;8.70;100.00;102838.47;5039794;28;20243;-68
2023/04/09 07:13:16;;;;;;;52.47;31.27;;;;;;;8.74;100.00;102840.41;5045529;28;21130;-68
2023/04/09 07:15:41;;;;;;;50.33;30.40;;;;;;;8.74;100.00;102835.31;5044154;28;20229;-68
2023/04/09 07:18:07;;;;;;;50.80;31.27;;;;;;;8.71;100.00;102841.91;5042798;28;20300;-68
2023/04/09 07:20:33;;;;;;;48.83;30.07;;;;;;;8.65;100.00;102836.44;5022572;28;20281;-68
2023/04/09 07:22:59;;;;;;;48.90;29.60;;;;;;;8.69;100.00;102844.38;5022261;28;20197;-67
2023/04/09 07:25:24;;;;;;;52.60;30.83;;;;;;;8.60;100.00;102842.94;5020225;28;20608;-68
2023/04/09 07:27:49;;;;;;;61.07;32.27;;;;;;;8.35;100.00;102842.28;5043076;28;20318;-68
2023/04/09 07:30:15;;;;;;;50.60;31.00;;;;;;;8.52;100.00;102839.06;5046130;28;20237;-67
2023/04/09 07:32:40;;;;;;;53.17;32.20;;;;;;;8.49;100.00;102847.44;5044030;28;20272;-68
2023/04/09 07:35:08;;;;;;;53.83;32.07;;;;;;;8.42;100.00;102844.38;5024208;28;20224;-68
2023/04/09 07:37:34;;;;;;;54.30;30.30;;;;;;;8.38;100.00;102851.00;5035649;28;20225;-68
2023/04/09 07:40:00;;;;;;;46.53;30.07;;;;;;;8.43;100.00;102847.03;5038906;28;20197;-67
2023/04/09 07:42:26;;;;;;;49.03;29.90;;;;;;;8.49;100.00;102846.53;5044879;28;20198;-67
2023/04/09 07:44:51;;;;;;;51.17;30.10;;;;;;;8.52;100.00;102844.19;5048239;28;20204;-67
2023/04/09 07:47:16;;;;;;;48.63;29.87;;;;;;;8.54;100.00;102843.47;5050297;28;20189;-67
2023/04/09 07:49:42;;;;;;;51.00;31.03;;;;;;;8.43;100.00;102843.63;5037026;28;20201;-67
2023/04/09 07:52:07;;;;;;;52.77;31.83;;;;;;;8.50;100.00;102849.19;5047352;28;20231;-67
2023/04/09 07:54:34;;;;;;;55.10;30.10;;;;;;;8.50;100.00;102848.28;5035772;28;20268;-68
2023/04/09 07:57:03;;;;;;;50.40;30.77;;;;;;;8.50;100.00;102846.63;5035970;28;20205;-67
2023/04/09 07:59:29;;;;;;;52.43;30.83;;;;;;;8.41;100.00;102848.63;5034219;28;20276;-67
2023/04/09 08:01:55;;;;;;;53.50;30.40;;;;;;;8.44;100.00;102843.69;5051183;28;20204;-67
2023/04/09 08:04:20;;;;;;;53.73;30.20;;;;;;;8.52;100.00;102844.19;5048036;28;20198;-67
2023/04/09 08:06:49;;;;;;;50.33;28.33;;;;;;;8.56;100.00;102838.44;5048825;28;20266;-68
2023/04/09 08:09:18;;;;;;;53.83;30.83;;;;;;;8.55;100.00;102845.22;5026539;28;20199;-67
2023/04/09 08:11:44;;;;;;;56.77;31.23;;;;;;;8.62;100.00;102846.47;5046547;28;20233;-67
2023/04/09 08:14:11;;;;;;;52.60;31.33;;;;;;;8.63;100.00;102848.22;5053204;28;20640;-67
2023/04/09 08:16:43;;;;;;;54.20;31.00;;;;;;;8.56;100.00;102847.00;5050313;28;20754;-68
2023/04/09 08:19:09;;;;;;;53.43;30.63;;;;;;;8.63;100.00;102846.56;5050036;28;20574;-68
2023/04/09 08:21:41;;;;;;;50.60;29.17;;;;;;;8.76;100.00;102850.72;5047819;28;20198;-67
2023/04/09 08:24:10;;;;;;;44.00;25.83;;;;;;;8.84;100.00;102840.16;5046122;28;20255;-67
2023/04/09 08:26:36;;;;;;;51.20;28.00;;;;;;;8.94;100.00;102844.13;5034602;28;20209;-68
2023/04/09 08:29:02;;;;;;;42.53;24.97;;;;;;;9.06;100.00;102838.06;5049507;28;20225;-66
2023/04/09 08:31:27;;;;;;;43.07;25.27;;;;;;;9.25;100.00;102839.97;5051420;28;20248;-67
2023/04/09 08:33:53;;;;;;;40.63;24.07;;;;;;;9.23;100.00;102844.13;5036776;28;20197;-66
2023/04/09 08:36:19;;;;;;;35.47;22.13;;;;;;;9.14;100.00;102841.03;5045617;28;20209;-66
2023/04/09 08:38:46;;;;;;;35.40;22.13;;;;;;;9.10;100.00;102844.22;5048241;28;20209;-67
2023/04/09 08:41:20;;;;;;;36.33;21.97;;;;;;;8.77;100.00;102840.59;5025493;28;20230;-68
2023/04/09 08:43:50;;;;;;;39.77;23.70;;;;;;;8.97;100.00;102844.28;5049878;28;20185;-68
2023/04/09 08:46:17;;;;;;;32.67;19.87;;;;;;;8.98;100.00;102846.94;5050283;28;20209;-66
2023/04/09 08:48:44;;;;;;;34.17;21.30;;;;;;;9.02;100.00;102845.44;5045836;28;20247;-67
2023/04/09 08:51:14;;;;;;;31.03;20.63;;;;;;;9.23;100.00;102846.69;5047870;28;20229;-67
2023/04/09 08:53:51;;;;;;;31.30;19.57;;;;;;;9.35;100.00;102843.13;5046857;28;20200;-67
2023/04/09 08:56:17;;;;;;;29.30;19.33;;;;;;;9.46;100.00;102846.28;5041401;28;20222;-67
2023/04/09 08:58:44;;;;;;;29.73;19.90;;;;;;;9.58;100.00;102844.44;5049780;28;20213;-67
2023/04/09 09:01:26;;;;;;;32.13;20.03;;;;;;;9.64;100.00;102850.72;5048533;28;20682;-67
2023/04/09 09:03:55;;;;;;;31.03;19.70;;;;;;;9.74;100.00;102847.03;5045615;28;20194;-67
2023/04/09 09:06:22;;;;;;;32.27;21.90;;;;;;;9.68;100.00;102851.81;5043084;28;20257;-67
2023/04/09 09:09:11;;;;;;;37.40;22.17;;;;;;;9.72;100.00;102848.63;5044961;28;20776;-67
2023/04/09 09:11:39;;;;;;;32.63;20.87;;;;;;;9.77;100.00;102840.38;5042238;28;20198;-67
2023/04/09 09:14:07;;;;;;;34.30;21.07;;;;;;;9.79;100.00;102850.72;5047358;28;20198;-67
2023/04/09 09:16:35;;;;;;;35.70;22.10;;;;;;;9.72;100.00;102852.06;5046669;28;20242;-67
2023/04/09 09:19:01;;;;;;;37.10;22.57;;;;;;;9.77;100.00;102842.94;5047284;28;20209;-67
2023/04/09 09:21:28;;;;;;;27.77;18.17;;;;;;;9.80;100.00;102844.78;5041328;28;20198;-67
2023/04/09 09:23:53;;;;;;;28.97;19.37;;;;;;;9.77;100.00;102844.66;5047724;28;20523;-67
2023/04/09 09:26:27;;;;;;;29.23;19.63;;;;;;;9.70;100.00;102851.09;5042404;28;20300;-67
2023/04/09 09:28:53;;;;;;;33.77;19.70;;;;;;;9.60;100.00;102847.94;5050008;28;20194;-67
2023/04/09 09:31:20;;;;;;;35.47;20.57;;;;;;;9.77;100.00;102842.09;5041349;28;20255;-67
2023/04/09 09:33:47;;;;;;;31.43;20.10;;;;;;;9.84;100.00;102839.03;5047339;28;20280;-67
2023/04/09 09:36:14;;;;;;;33.37;20.73;;;;;;;10.00;100.00;102852.75;5043194;28;20221;-67
2023/04/09 09:38:55;;;;;;;31.63;19.50;;;;;;;9.97;100.00;102837.25;5046200;28;20237;-67
2023/04/09 09:41:21;;;;;;;28.93;19.33;;;;;;;10.02;100.00;102837.47;5021734;28;20770;-66
2023/04/09 09:43:47;;;;;;;33.47;20.53;;;;;;;10.08;100.00;102835.28;5050010;28;20293;-66
2023/04/09 09:46:13;;;;;;;28.83;19.47;;;;;;;10.13;100.00;102829.59;5025998;28;20210;-67
2023/04/09 09:48:39;;;;;;;30.20;20.60;;;;;;;10.15;100.00;102825.47;5045936;28;20678;-67
2023/04/09 09:51:13;;;;;;;33.43;21.27;;;;;;;10.21;100.00;102830.91;5043324;28;20186;-67
2023/04/09 09:53:46;;;;;;;31.37;20.03;;;;;;;10.32;100.00;102824.66;5042149;28;20194;-67
2023/04/09 09:56:15;;;;;;;29.17;19.63;;;;;;;10.33;100.00;102820.41;5041717;28;20241;-67
2023/04/09 09:59:01;;;;;;;29.37;19.00;;;;;;;10.36;100.00;102830.78;5045483;28;20699;-67
2023/04/09 10:01:26;;;;;;;34.67;21.40;;;;;;;10.29;100.00;102844.09;5045434;28;20225;-67
2023/04/09 10:03:55;;;;;;;30.97;19.33;;;;;;;10.27;100.00;102826.09;5045840;28;20228;-67
2023/04/09 10:06:21;;;;;;;28.87;19.13;;;;;;;10.44;100.00;102822.72;5042104;28;20234;-67
2023/04/09 10:08:48;;;;;;;27.17;18.47;;;;;;;10.45;100.00;102809.13;5043533;28;20670;-67
2023/04/09 10:11:14;;;;;;;27.17;18.67;;;;;;;10.61;100.00;102797.97;5039203;28;20194;-67
2023/04/09 10:13:49;;;;;;;28.37;18.40;;;;;;;10.74;100.00;102801.22;5047858;28;20194;-67
2023/04/09 10:16:16;;;;;;;30.83;19.93;;;;;;;10.83;100.00;102808.50;5044383;28;20579;-67
2023/04/09 10:18:41;;;;;;;33.63;20.47;;;;;;;10.88;100.00;102812.16;5045881;28;20216;-67
2023/04/09 10:21:30;;;;;;;27.63;18.53;;;;;;;11.07;100.00;102805.44;5044938;28;20193;-67
2023/04/09 10:23:57;;;;;;;29.60;19.23;;;;;;;11.01;100.00;102802.56;5042803;28;20312;-67
2023/04/09 10:26:26;;;;;;;28.60;19.10;;;;;;;11.19;100.00;102759.00;5045955;28;20217;-67
2023/04/09 10:29:08;;;;;;;26.63;17.27;;;;;;;10.91;100.00;102746.56;5048475;28;20221;-67
2023/04/09 10:31:53;;;;;;;27.70;18.53;;;;;;;11.07;100.00;102761.84;5046293;28;20237;-67
2023/04/09 10:34:25;;;;;;;30.70;19.23;;;;;;;11.34;100.00;102773.41;5042296;28;20189;-67
2023/04/09 10:36:54;;;;;;;26.33;18.27;;;;;;;11.40;100.00;102734.38;5041609;28;20205;-67
2023/04/09 10:39:20;;;;;;;26.43;19.03;;;;;;;11.40;100.00;102735.25;5027983;28;20225;-67
2023/04/09 10:41:47;;;;;;;26.40;17.70;;;;;;;11.36;100.00;102746.19;5046066;28;20272;-67
2023/04/09 10:44:25;;;;;;;29.47;18.50;;;;;;;11.69;100.00;102737.50;5045193;28;20194;-67
2023/04/09 10:46:54;;;;;;;25.57;17.33;;;;;;;12.24;100.00;102682.59;5030650;28;20213;-67
2023/04/09 10:49:25;;;;;;;25.73;16.83;;;;;;;12.38;100.00;102680.59;5044172;28;20190;-67
2023/04/09 10:52:02;;;;;;;25.90;17.67;;;;;;;12.30;100.00;102618.63;5031645;28;20575;-67
2023/04/09 10:54:33;;;;;;;25.37;17.60;;;;;;;12.60;100.00;102603.56;5040159;28;20186;-67
2023/04/09 10:57:08;;;;;;;26.63;18.13;;;;;;;12.80;100.00;102606.09;5045704;28;20214;-67
2023/04/09 10:59:35;;;;;;;23.50;16.83;;;;;;;13.52;100.00;102545.31;5047583;28;20263;-67
2023/04/09 11:02:01;;;;;;;26.07;17.53;;;;;;;13.96;100.00;102522.84;5047083;28;20208;-68
2023/04/09 11:05:00;;;;;;;23.53;16.13;;;;;;;14.66;100.00;102475.25;5045850;28;20289;-67
2023/04/09 11:07:28;;;;;;;23.87;16.83;;;;;;;15.03;100.00;102386.84;5041259;28;20281;-67
2023/04/09 11:09:54;;;;;;;24.23;16.60;;;;;;;15.58;100.00;102334.06;5042262;28;20197;-67
2023/04/09 11:12:19;;;;;;;23.23;17.47;;;;;;;15.84;100.00;102283.84;5048510;28;20197;-67